Time;durP1;ratioP1;P1;durP2;ratioP2;P2;SDS_P1;SDS_P2;PMS_P1;PMS_P2;Temp;Humidity;BMP_temperature;BMP_pressure;BME280_temperature;BME280_humidity;BME280_pressure;Samples;Min_cycle;Max_cycle;Signal;HPM_P1;HPM_P2
2022/05/25 00:00:40;;;;;;;2.88;0.40;;;13.50;64.40;;;;;;4945037;28;20053;-73
2022/05/25 00:03:06;;;;;;;2.22;0.60;;;13.40;64.30;;;;;;4978926;28;20030;-73
2022/05/25 00:05:32;;;;;;;0.43;0.30;;;13.40;64.40;;;;;;4976541;28;20022;-72
2022/05/25 00:07:58;;;;;;;1.55;0.52;;;13.40;64.60;;;;;;4943702;28;20113;-72
2022/05/25 00:10:24;;;;;;;0.60;0.60;;;13.30;64.60;;;;;;4968228;28;20651;-72
2022/05/25 00:12:49;;;;;;;1.25;0.60;;;13.30;64.80;;;;;;4965999;28;20089;-72
2022/05/25 00:15:15;;;;;;;1.98;0.40;;;13.30;64.90;;;;;;4959745;28;20046;-72
2022/05/25 00:17:50;;;;;;;1.08;0.50;;;13.20;64.90;;;;;;4971726;28;20115;-72
2022/05/25 00:20:18;;;;;;;1.15;0.50;;;13.20;65.10;;;;;;4926627;28;20185;-72
2022/05/25 00:22:46;;;;;;;0.90;0.60;;;13.20;65.10;;;;;;4959994;28;20582;-73
2022/05/25 00:25:17;;;;;;;1.00;0.50;;;13.20;65.30;;;;;;4978972;28;20141;-72
2022/05/25 00:27:43;;;;;;;0.60;0.50;;;13.20;65.40;;;;;;4962931;28;20041;-72
2022/05/25 00:30:09;;;;;;;2.35;0.60;;;13.20;65.40;;;;;;4972800;28;20298;-72
2022/05/25 00:32:34;;;;;;;0.80;0.65;;;13.20;65.40;;;;;;4964261;28;20038;-73
2022/05/25 00:35:00;;;;;;;0.60;0.50;;;13.10;65.50;;;;;;4972063;28;20550;-72
2022/05/25 00:37:25;;;;;;;1.63;0.50;;;13.10;65.60;;;;;;4937083;28;20026;-72
2022/05/25 00:39:51;;;;;;;0.75;0.70;;;13.10;65.70;;;;;;4949350;28;20046;-73
2022/05/25 00:42:16;;;;;;;1.77;0.50;;;13.10;65.80;;;;;;4970633;28;20033;-74
2022/05/25 00:44:42;;;;;;;1.15;0.65;;;13.00;65.90;;;;;;4933798;28;20092;-74
2022/05/25 00:47:08;;;;;;;0.50;0.50;;;13.00;65.90;;;;;;4959385;28;20129;-73
2022/05/25 00:49:34;;;;;;;3.08;0.75;;;13.00;66.00;;;;;;4969413;28;20073;-73
2022/05/25 00:52:03;;;;;;;0.50;0.50;;;13.00;66.10;;;;;;4942233;28;20048;-73
2022/05/25 00:54:33;;;;;;;1.38;0.60;;;12.90;66.30;;;;;;4947278;28;20133;-73
2022/05/25 00:57:06;;;;;;;0.55;0.43;;;12.90;66.30;;;;;;4977192;28;20118;-72
2022/05/25 00:59:33;;;;;;;1.83;0.40;;;12.90;66.40;;;;;;4928200;28;20035;-72
2022/05/25 01:01:59;;;;;;;0.82;0.50;;;12.90;66.40;;;;;;4975877;28;20041;-72
2022/05/25 01:04:25;;;;;;;4.43;0.50;;;12.80;66.30;;;;;;4958049;28;20050;-72
2022/05/25 01:06:59;;;;;;;0.65;0.47;;;12.80;66.50;;;;;;4953949;28;20030;-73
2022/05/25 01:09:31;;;;;;;1.50;0.68;;;12.80;66.70;;;;;;4961000;28;20030;-72
2022/05/25 01:12:17;;;;;;;0.57;0.40;;;12.80;66.70;;;;;;4957309;28;20108;-74
2022/05/25 01:15:05;;;;;;;1.20;0.57;;;12.80;67.30;;;;;;4966646;28;20034;-76
2022/05/25 01:17:42;;;;;;;0.57;0.50;;;12.80;67.20;;;;;;4941841;28;20068;-72
2022/05/25 01:20:37;;;;;;;1.52;0.70;;;12.80;67.00;;;;;;4982796;28;20042;-73
2022/05/25 01:23:14;;;;;;;1.45;0.68;;;12.70;67.30;;;;;;4990701;28;20100;-72
2022/05/25 01:26:17;;;;;;;1.15;0.57;;;12.70;67.30;;;;;;4973026;28;20034;-72
2022/05/25 01:29:01;;;;;;;1.38;0.45;;;12.70;67.40;;;;;;4985730;28;20031;-73
2022/05/25 01:31:41;;;;;;;3.28;0.65;;;12.70;67.50;;;;;;4984145;28;20026;-72
2022/05/25 01:34:19;;;;;;;0.73;0.50;;;12.70;67.40;;;;;;4952406;28;20085;-72
2022/05/25 01:36:54;;;;;;;1.38;0.50;;;12.60;67.40;;;;;;4941481;28;20473;-72
2022/05/25 01:39:23;;;;;;;0.80;0.65;;;12.60;67.60;;;;;;4969736;28;20026;-73
2022/05/25 01:42:26;;;;;;;0.77;0.52;;;12.60;67.60;;;;;;4939117;28;20022;-73
2022/05/25 01:44:54;;;;;;;2.38;0.77;;;12.60;68.00;;;;;;4965774;28;20073;-73
2022/05/25 01:47:20;;;;;;;1.52;0.60;;;12.50;67.60;;;;;;4940621;28;20042;-75
2022/05/25 01:49:55;;;;;;;0.40;0.40;;;12.50;67.70;;;;;;4957659;28;20041;-73
2022/05/25 01:52:24;;;;;;;1.45;0.68;;;12.50;68.00;;;;;;4966416;28;20118;-72
2022/05/25 01:54:52;;;;;;;2.45;0.65;;;12.50;68.00;;;;;;4966747;28;20041;-73
2022/05/25 01:57:18;;;;;;;0.70;0.50;;;12.40;68.00;;;;;;4959511;28;20034;-72
2022/05/25 01:59:44;;;;;;;2.95;0.60;;;12.40;68.00;;;;;;4953283;28;20045;-75
2022/05/25 02:04:54;;;;;;;0.60;0.50;;;12.40;68.30;;;;;;4958797;28;20229;-72
2022/05/25 02:07:38;;;;;;;1.27;0.60;;;12.40;68.40;;;;;;4967313;28;20573;-72
2022/05/25 02:10:33;;;;;;;1.58;0.60;;;12.40;68.40;;;;;;4998386;28;20699;-74
2022/05/25 02:13:10;;;;;;;2.13;0.70;;;12.40;68.80;;;;;;4978385;28;20054;-73
2022/05/25 02:15:36;;;;;;;0.90;0.68;;;12.40;68.90;;;;;;4990006;28;20164;-73
2022/05/25 02:18:35;;;;;;;0.88;0.60;;;12.40;68.60;;;;;;5000158;28;20087;-72
2022/05/25 02:21:19;;;;;;;1.95;0.70;;;12.40;69.20;;;;;;4979449;28;20687;-72
2022/05/25 02:23:57;;;;;;;1.20;0.50;;;12.30;68.80;;;;;;4984111;28;20088;-72
2022/05/25 02:26:28;;;;;;;4.60;0.60;;;12.30;69.10;;;;;;4996144;28;20125;-73
2022/05/25 02:29:05;;;;;;;0.82;0.65;;;12.30;69.10;;;;;;4968817;28;20038;-73
2022/05/25 02:31:36;;;;;;;1.92;0.75;;;12.30;69.10;;;;;;4970773;28;20037;-72
2022/05/25 02:34:02;;;;;;;1.58;0.70;;;12.30;69.10;;;;;;4965770;28;20370;-74
2022/05/25 02:36:29;;;;;;;1.13;0.98;;;12.30;69.10;;;;;;4983495;28;20614;-72
2022/05/25 02:38:54;;;;;;;0.57;0.57;;;12.30;69.30;;;;;;4972765;28;20034;-73
2022/05/25 02:41:31;;;;;;;1.02;0.60;;;12.20;69.30;;;;;;4983676;28;20045;-74
2022/05/25 02:43:57;;;;;;;1.17;0.90;;;12.20;69.80;;;;;;4995144;28;20038;-73
2022/05/25 02:46:24;;;;;;;1.05;0.75;;;12.20;69.40;;;;;;4982188;28;20542;-74
2022/05/25 02:48:50;;;;;;;1.85;0.60;;;12.20;69.50;;;;;;4994385;28;20060;-73
2022/05/25 02:51:15;;;;;;;0.60;0.50;;;12.20;69.60;;;;;;4987943;28;20042;-72
2022/05/25 02:53:41;;;;;;;0.68;0.68;;;12.20;69.70;;;;;;4980930;28;20053;-72
2022/05/25 02:56:06;;;;;;;0.80;0.70;;;12.20;69.70;;;;;;4993570;28;20542;-72
2022/05/25 02:58:32;;;;;;;0.93;0.80;;;12.20;69.90;;;;;;4987786;28;20745;-73
2022/05/25 03:00:58;;;;;;;2.25;0.55;;;12.20;69.80;;;;;;4953944;28;20041;-73
2022/05/25 03:03:23;;;;;;;1.05;0.70;;;12.20;69.90;;;;;;4992371;28;20525;-72
2022/05/25 03:05:49;;;;;;;2.75;0.80;;;12.20;70.00;;;;;;4934532;28;20141;-73
2022/05/25 03:08:14;;;;;;;1.63;0.85;;;12.20;70.00;;;;;;4984791;28;20033;-72
2022/05/25 03:10:40;;;;;;;1.90;0.70;;;12.20;70.90;;;;;;4996609;28;20038;-72
2022/05/25 03:13:06;;;;;;;1.52;0.80;;;12.10;70.10;;;;;;4959492;28;20112;-72
2022/05/25 03:15:32;;;;;;;1.25;0.90;;;12.10;70.10;;;;;;4996925;28;20092;-74
2022/05/25 03:17:57;;;;;;;1.30;0.80;;;12.10;70.10;;;;;;4971299;28;20025;-72
2022/05/25 03:20:23;;;;;;;1.25;0.60;;;12.10;70.30;;;;;;4987075;28;20292;-74
2022/05/25 03:22:49;;;;;;;0.70;0.70;;;12.10;70.30;;;;;;4941878;28;20038;-73
2022/05/25 03:25:15;;;;;;;2.47;0.80;;;12.10;70.40;;;;;;4992478;28;20042;-72
2022/05/25 03:27:40;;;;;;;0.98;0.82;;;12.10;70.50;;;;;;4966462;28;20502;-73
2022/05/25 03:30:07;;;;;;;3.53;0.80;;;12.10;70.50;;;;;;4954071;28;20651;-73
2022/05/25 03:32:32;;;;;;;1.15;0.70;;;12.00;70.50;;;;;;4967942;28;20410;-73
2022/05/25 03:34:59;;;;;;;0.50;0.50;;;12.00;70.50;;;;;;4985724;28;20042;-74
2022/05/25 03:37:25;;;;;;;0.57;0.52;;;12.00;70.70;;;;;;4956103;28;20032;-75
2022/05/25 03:39:51;;;;;;;0.93;0.85;;;12.00;70.70;;;;;;4949045;28;20572;-72
2022/05/25 03:42:16;;;;;;;2.67;0.80;;;12.00;70.80;;;;;;4966102;28;20022;-73
2022/05/25 03:44:42;;;;;;;1.42;0.70;;;12.00;70.90;;;;;;4977904;28;20029;-74
2022/05/25 03:47:08;;;;;;;1.20;0.70;;;12.00;71.00;;;;;;4968473;28;20042;-72
2022/05/25 03:49:34;;;;;;;2.13;1.23;;;12.00;71.10;;;;;;4961093;28;20742;-75
2022/05/25 03:51:59;;;;;;;2.22;0.85;;;11.90;71.00;;;;;;4984589;28;20105;-72
2022/05/25 03:54:25;;;;;;;1.15;0.90;;;11.90;71.00;;;;;;4981551;28;20120;-74
2022/05/25 03:56:50;;;;;;;2.65;0.90;;;11.90;71.20;;;;;;4993879;28;20026;-72
2022/05/25 03:59:16;;;;;;;1.10;0.88;;;11.90;71.20;;;;;;4982837;28;20086;-72
2022/05/25 04:01:42;;;;;;;1.45;1.10;;;11.90;71.20;;;;;;4986273;28;20109;-73
2022/05/25 04:04:07;;;;;;;1.17;0.82;;;11.90;71.30;;;;;;4974284;28;20054;-73
2022/05/25 04:06:33;;;;;;;1.67;0.70;;;11.90;71.30;;;;;;4994582;28;20349;-73
2022/05/25 04:08:58;;;;;;;1.02;0.75;;;11.90;71.40;;;;;;4967708;28;20045;-74
2022/05/25 04:11:24;;;;;;;3.28;0.80;;;11.90;71.50;;;;;;4962974;28;20113;-73
2022/05/25 04:13:49;;;;;;;1.05;0.85;;;11.90;71.50;;;;;;5000326;28;20029;-76
2022/05/25 04:16:15;;;;;;;2.45;0.65;;;11.90;71.60;;;;;;4980021;28;20723;-73
2022/05/25 04:18:40;;;;;;;4.63;1.00;;;11.80;71.60;;;;;;4985233;28;20037;-73
2022/05/25 04:21:06;;;;;;;1.00;0.90;;;11.90;71.80;;;;;;4972210;28;20026;-72
2022/05/25 04:23:31;;;;;;;3.38;0.90;;;11.80;71.80;;;;;;4981366;28;20030;-72
2022/05/25 04:25:57;;;;;;;1.55;0.73;;;11.90;72.00;;;;;;4941919;28;20026;-72
2022/05/25 04:28:23;;;;;;;1.17;0.60;;;11.90;72.00;;;;;;4972753;28;20033;-72
2022/05/25 04:30:48;;;;;;;2.10;0.80;;;11.90;71.90;;;;;;4977760;28;20037;-75
2022/05/25 04:33:14;;;;;;;2.15;0.60;;;11.90;72.00;;;;;;4961973;28;20034;-73
2022/05/25 04:35:40;;;;;;;1.02;0.68;;;11.90;72.00;;;;;;4951850;28;20030;-73
2022/05/25 04:38:06;;;;;;;2.67;1.17;;;11.90;72.20;;;;;;4982353;28;20057;-72
2022/05/25 04:40:37;;;;;;;1.73;1.00;;;11.90;72.20;;;;;;4982077;28;20030;-72
2022/05/25 04:43:08;;;;;;;0.60;0.60;;;11.90;72.50;;;;;;4960800;28;20046;-73
2022/05/25 04:45:33;;;;;;;0.98;0.73;;;11.90;72.50;;;;;;4967894;28;20127;-72
2022/05/25 04:48:00;;;;;;;1.70;0.80;;;11.90;72.50;;;;;;4989313;28;20687;-73
2022/05/25 04:50:29;;;;;;;1.17;0.75;;;11.90;72.40;;;;;;4979023;28;20477;-72
2022/05/25 04:52:59;;;;;;;2.38;0.68;;;11.90;72.50;;;;;;4953749;28;20042;-72
2022/05/25 04:58:18;;;;;;;1.17;0.70;;;12.00;72.60;;;;;;4983847;28;20099;-75
2022/05/25 05:00:43;;;;;;;3.65;0.98;;;12.00;72.80;;;;;;4983893;28;20030;-73
2022/05/25 05:03:09;;;;;;;2.00;1.30;;;12.00;72.50;;;;;;4969687;28;20048;-74
2022/05/25 05:05:35;;;;;;;3.53;1.38;;;12.00;72.60;;;;;;4980399;28;20081;-73
2022/05/25 05:08:00;;;;;;;1.95;1.15;;;12.00;73.40;;;;;;4999503;28;20033;-75
2022/05/25 05:10:26;;;;;;;3.75;1.10;;;12.00;72.60;;;;;;4974579;28;20459;-73
2022/05/25 05:12:52;;;;;;;1.15;0.85;;;12.00;72.70;;;;;;5003769;28;20038;-74
2022/05/25 05:15:18;;;;;;;1.85;0.98;;;12.10;72.70;;;;;;4970817;28;20038;-75
2022/05/25 05:17:43;;;;;;;7.40;1.13;;;12.10;72.80;;;;;;4973632;28;20553;-73
2022/05/25 05:20:09;;;;;;;2.83;0.95;;;12.10;72.70;;;;;;4993436;28;20042;-73
2022/05/25 05:22:35;;;;;;;1.85;1.00;;;12.10;72.90;;;;;;4974389;28;20026;-72
2022/05/25 05:25:01;;;;;;;2.25;0.80;;;12.20;73.00;;;;;;4981550;28;20651;-74
2022/05/25 05:27:26;;;;;;;4.20;0.70;;;12.20;73.10;;;;;;4956791;28;20092;-73
2022/05/25 05:29:52;;;;;;;4.10;0.98;;;12.20;73.00;;;;;;4966998;28;20058;-74
2022/05/25 05:32:17;;;;;;;1.20;0.90;;;12.20;73.00;;;;;;4965239;28;20671;-73
2022/05/25 05:34:43;;;;;;;2.45;1.00;;;12.20;73.00;;;;;;4962287;28;20038;-74
2022/05/25 05:37:20;;;;;;;1.00;0.90;;;12.20;72.90;;;;;;4974747;28;20486;-74
2022/05/25 05:39:47;;;;;;;3.53;1.10;;;12.30;73.20;;;;;;4973903;28;20038;-73
2022/05/25 05:42:15;;;;;;;2.88;1.50;;;12.30;73.00;;;;;;4994261;28;20662;-73
2022/05/25 05:44:43;;;;;;;3.05;1.25;;;12.30;73.00;;;;;;4983406;28;20114;-73
2022/05/25 05:47:11;;;;;;;3.22;1.52;;;12.30;73.10;;;;;;4962411;28;20034;-74
2022/05/25 05:49:37;;;;;;;3.83;1.30;;;12.30;73.10;;;;;;4945958;28;20038;-74
2022/05/25 05:52:03;;;;;;;3.92;1.48;;;12.40;73.10;;;;;;4958483;28;20038;-74
2022/05/25 05:54:28;;;;;;;1.98;1.52;;;12.40;73.20;;;;;;4963094;28;22034;-73
2022/05/25 05:56:54;;;;;;;1.52;1.10;;;12.40;73.20;;;;;;4983491;28;20022;-72
2022/05/25 05:59:19;;;;;;;2.10;1.50;;;12.40;73.20;;;;;;4988837;28;20038;-73
2022/05/25 06:01:45;;;;;;;3.15;1.60;;;12.50;73.20;;;;;;4940816;28;20156;-72
2022/05/25 06:04:11;;;;;;;4.10;1.70;;;12.60;73.20;;;;;;4988275;28;20112;-73
2022/05/25 06:06:37;;;;;;;3.33;2.08;;;12.70;73.30;;;;;;4942563;28;20034;-73
2022/05/25 06:09:02;;;;;;;3.50;1.80;;;12.70;73.20;;;;;;4992431;28;20040;-73
2022/05/25 06:11:28;;;;;;;5.25;1.40;;;12.80;73.20;;;;;;4996612;28;20136;-73
2022/05/25 06:13:54;;;;;;;3.78;1.67;;;12.90;73.20;;;;;;4971370;28;20043;-73
2022/05/25 06:21:48;;;;;;;1.73;1.23;;;13.20;73.00;;;;;;4997589;28;20168;-72
2022/05/25 06:24:13;;;;;;;5.00;1.35;;;13.40;73.00;;;;;;4970441;28;20142;-73
2022/05/25 06:26:39;;;;;;;3.83;1.40;;;13.50;72.90;;;;;;4985017;28;20129;-73
2022/05/25 06:29:04;;;;;;;2.03;1.40;;;13.60;72.70;;;;;;4967989;28;20054;-72
2022/05/25 06:31:30;;;;;;;1.92;0.93;;;13.70;72.60;;;;;;4990557;28;20034;-72
2022/05/25 06:33:56;;;;;;;2.40;0.90;;;13.90;72.50;;;;;;4964543;28;20499;-73
2022/05/25 06:36:24;;;;;;;2.85;1.23;;;14.00;72.40;;;;;;4978603;28;20610;-76
2022/05/25 06:38:50;;;;;;;4.95;1.33;;;14.20;72.30;;;;;;4981564;28;20062;-73
2022/05/25 06:41:15;;;;;;;3.28;1.30;;;14.40;72.90;;;;;;4994511;28;20111;-72
2022/05/25 06:43:41;;;;;;;2.80;1.33;;;14.50;71.80;;;;;;4952383;28;20030;-73
2022/05/25 06:46:07;;;;;;;2.25;1.40;;;14.70;71.70;;;;;;4969990;28;20058;-73
2022/05/25 06:48:33;;;;;;;3.25;1.40;;;14.80;71.60;;;;;;4963689;28;20030;-74
2022/05/25 06:51:08;;;;;;;2.05;1.50;;;14.90;71.50;;;;;;4990740;28;20048;-73
2022/05/25 06:53:34;;;;;;;4.13;1.50;;;15.10;71.70;;;;;;4954689;28;20112;-73
2022/05/25 06:55:59;;;;;;;3.25;1.23;;;15.30;71.30;;;;;;4952069;28;20479;-73
2022/05/25 06:58:25;;;;;;;2.90;1.65;;;15.40;71.20;;;;;;4971908;28;20530;-73
2022/05/25 07:00:50;;;;;;;1.20;1.10;;;15.60;71.00;;;;;;4995688;28;20453;-73
2022/05/25 07:03:16;;;;;;;1.85;1.13;;;15.80;70.80;;;;;;4950054;28;20516;-73
2022/05/25 07:05:41;;;;;;;3.00;1.63;;;15.90;70.50;;;;;;4983834;28;20080;-73
2022/05/25 07:08:07;;;;;;;2.72;1.05;;;16.20;70.50;;;;;;4977475;28;20026;-73
2022/05/25 07:10:32;;;;;;;1.63;1.10;;;16.30;70.20;;;;;;4993073;28;20551;-73
2022/05/25 07:12:58;;;;;;;2.03;0.90;;;16.50;69.90;;;;;;4958699;28;20442;-73
2022/05/25 07:15:23;;;;;;;1.27;0.90;;;16.70;69.70;;;;;;4977217;28;20061;-72
2022/05/25 07:17:49;;;;;;;5.07;0.80;;;16.90;69.40;;;;;;4986475;28;20038;-72
2022/05/25 07:20:14;;;;;;;0.90;0.80;;;17.10;69.00;;;;;;4946270;28;20058;-73
2022/05/25 07:22:40;;;;;;;0.98;0.77;;;17.30;68.70;;;;;;4980939;28;20075;-72
2022/05/25 07:25:06;;;;;;;2.58;0.85;;;17.40;68.30;;;;;;4985930;28;20080;-74
2022/05/25 07:27:32;;;;;;;4.93;1.58;;;17.60;67.90;;;;;;4963596;28;20042;-73
2022/05/25 07:29:58;;;;;;;1.33;0.50;;;17.80;67.60;;;;;;4995230;28;20084;-72
2022/05/25 07:32:23;;;;;;;3.90;0.77;;;18.00;67.20;;;;;;4987868;28;20038;-73
2022/05/25 07:34:57;;;;;;;2.38;0.70;;;18.20;66.80;;;;;;4980615;28;20052;-73
2022/05/25 07:37:23;;;;;;;1.83;0.60;;;18.50;66.10;;;;;;4996251;28;20026;-73
2022/05/25 07:39:58;;;;;;;1.70;0.50;;;18.60;65.50;;;;;;4980603;28;20044;-73
2022/05/25 07:42:23;;;;;;;0.40;0.30;;;18.80;65.00;;;;;;4968715;28;20038;-73
2022/05/25 07:44:53;;;;;;;0.77;0.50;;;19.10;64.40;;;;;;4985824;28;20478;-73
2022/05/25 07:47:18;;;;;;;1.15;0.43;;;19.20;63.60;;;;;;4980807;28;20041;-72
2022/05/25 07:49:44;;;;;;;2.97;1.25;;;19.40;63.10;;;;;;4970735;28;20589;-73
2022/05/25 07:52:10;;;;;;;0.80;0.50;;;19.50;62.40;;;;;;4987896;28;20425;-73
2022/05/25 07:54:36;;;;;;;0.68;0.30;;;19.70;61.90;;;;;;4975964;28;20621;-73
2022/05/25 07:57:02;;;;;;;1.15;0.50;;;19.80;60.90;;;;;;4970183;28;20128;-73
2022/05/25 07:59:27;;;;;;;2.35;0.60;;;20.00;60.10;;;;;;4995333;28;20125;-75
2022/05/25 08:07:26;;;;;;;1.33;0.60;;;20.50;58.50;;;;;;4958735;28;20045;-73
2022/05/25 08:10:04;;;;;;;2.83;0.55;;;20.70;58.00;;;;;;4977815;28;20033;-75
2022/05/25 08:12:30;;;;;;;1.55;0.60;;;20.90;57.80;;;;;;4964578;28;20502;-73
2022/05/25 08:14:55;;;;;;;0.38;0.30;;;21.10;57.20;;;;;;4978206;28;20104;-73
2022/05/25 08:17:32;;;;;;;1.08;0.40;;;21.30;56.70;;;;;;4957309;28;20042;-74
2022/05/25 08:19:58;;;;;;;1.58;0.50;;;21.40;55.70;;;;;;4953072;28;20039;-73
2022/05/25 08:22:25;;;;;;;1.55;0.50;;;21.50;55.60;;;;;;4996653;28;20049;-74
2022/05/25 08:24:51;;;;;;;1.95;0.50;;;21.70;55.20;;;;;;4994850;28;20193;-73
2022/05/25 08:27:16;;;;;;;3.97;0.63;;;21.90;54.80;;;;;;4944819;28;20163;-73
2022/05/25 08:29:42;;;;;;;2.25;0.50;;;22.00;54.30;;;;;;4965285;28;20045;-73
2022/05/25 08:32:07;;;;;;;3.28;0.88;;;22.20;53.80;;;;;;4980391;28;20030;-74
2022/05/25 08:34:34;;;;;;;2.63;0.40;;;22.30;53.40;;;;;;4996443;28;20045;-73
2022/05/25 08:36:59;;;;;;;1.23;0.50;;;22.40;53.10;;;;;;4996367;28;20034;-76
2022/05/25 08:39:25;;;;;;;1.85;0.43;;;22.50;52.70;;;;;;4979531;28;20045;-74
2022/05/25 08:41:52;;;;;;;1.90;0.55;;;22.60;52.40;;;;;;4980384;28;20079;-73
2022/05/25 08:44:19;;;;;;;1.02;0.40;;;22.50;52.10;;;;;;4980522;28;20556;-73
2022/05/25 08:46:44;;;;;;;1.63;0.40;;;22.60;51.90;;;;;;4978663;28;20061;-74
2022/05/25 08:49:14;;;;;;;2.58;0.40;;;22.60;51.70;;;;;;4964347;28;22214;-74
2022/05/25 08:51:46;;;;;;;0.30;0.30;;;22.70;51.60;;;;;;4963676;28;20038;-74
2022/05/25 08:54:12;;;;;;;1.73;0.40;;;22.70;50.90;;;;;;4975296;28;20068;-73
2022/05/25 08:56:49;;;;;;;0.68;0.40;;;22.80;51.10;;;;;;4996541;28;20046;-73
2022/05/25 08:59:25;;;;;;;2.47;0.30;;;22.80;50.80;;;;;;4991547;28;20033;-74
2022/05/25 09:01:58;;;;;;;0.57;0.20;;;22.90;49.90;;;;;;4967560;28;20037;-74
2022/05/25 09:04:38;;;;;;;1.75;0.50;;;23.10;49.80;;;;;;4977073;28;20046;-74
2022/05/25 09:07:10;;;;;;;1.58;0.30;;;23.20;49.90;;;;;;4980487;28;20033;-74
2022/05/25 09:09:40;;;;;;;0.65;0.30;;;23.50;49.60;;;;;;4985609;28;20090;-74
2022/05/25 09:12:14;;;;;;;1.77;0.30;;;23.60;48.80;;;;;;4978961;28;20041;-73
2022/05/25 09:15:10;;;;;;;0.93;0.38;;;23.80;48.30;;;;;;4982660;28;20046;-73
2022/05/25 09:17:43;;;;;;;2.30;0.60;;;24.00;47.30;;;;;;4967333;28;20042;-73
2022/05/25 09:20:09;;;;;;;3.13;0.50;;;24.10;47.40;;;;;;4986213;28;20042;-73
2022/05/25 09:22:35;;;;;;;1.15;0.30;;;24.30;47.60;;;;;;4968913;28;20037;-73
2022/05/25 09:25:02;;;;;;;1.13;0.30;;;24.50;47.20;;;;;;4982122;28;20038;-75
2022/05/25 09:27:31;;;;;;;2.13;0.40;;;24.70;46.90;;;;;;4989023;28;20164;-74
2022/05/25 09:29:58;;;;;;;1.13;0.55;;;24.90;46.60;;;;;;4982966;28;20036;-74
2022/05/25 09:32:43;;;;;;;1.35;0.20;;;25.00;46.10;;;;;;4981918;28;20039;-74
2022/05/25 09:35:24;;;;;;;1.83;0.50;;;25.20;44.80;;;;;;4985227;28;20046;-74
2022/05/25 09:38:04;;;;;;;5.25;0.77;;;25.40;44.60;;;;;;4968078;28;20399;-74
2022/05/25 09:40:34;;;;;;;0.85;0.40;;;25.50;44.10;;;;;;4978600;28;20499;-74
2022/05/25 09:43:02;;;;;;;0.52;0.35;;;25.60;44.70;;;;;;4985225;28;20431;-73
2022/05/25 09:45:38;;;;;;;1.30;0.40;;;25.70;44.50;;;;;;4998485;28;20121;-74
2022/05/25 09:48:26;;;;;;;1.05;0.30;;;25.70;44.20;;;;;;4975605;28;20037;-74
2022/05/25 09:50:59;;;;;;;0.88;0.50;;;25.80;42.80;;;;;;4962448;28;20030;-74
2022/05/25 09:53:25;;;;;;;0.80;0.47;;;25.80;43.20;;;;;;4980562;28;20491;-74
2022/05/25 09:55:52;;;;;;;1.73;0.40;;;25.80;43.60;;;;;;4972508;28;20045;-76
2022/05/25 09:58:43;;;;;;;3.15;0.38;;;25.80;43.30;;;;;;4958151;28;20039;-75
2022/05/25 10:01:27;;;;;;;0.70;0.30;;;25.70;42.00;;;;;;4991141;28;20042;-74
2022/05/25 10:03:53;;;;;;;2.05;0.50;;;25.60;43.30;;;;;;4996804;28;20038;-75
2022/05/25 10:06:46;;;;;;;0.70;0.30;;;25.50;43.10;;;;;;4948051;28;20038;-74
2022/05/25 10:09:20;;;;;;;1.20;0.30;;;25.60;42.50;;;;;;4982780;28;20103;-75
2022/05/25 10:11:51;;;;;;;0.95;0.40;;;25.90;43.20;;;;;;4981279;28;20080;-73
2022/05/25 10:14:28;;;;;;;2.55;0.40;;;26.00;43.00;;;;;;4964674;28;20125;-74
2022/05/25 10:17:22;;;;;;;1.60;0.70;;;26.00;42.20;;;;;;4969383;28;20073;-74
2022/05/25 10:19:49;;;;;;;1.25;0.50;;;26.10;41.80;;;;;;4976077;28;20038;-74
2022/05/25 10:22:31;;;;;;;0.63;0.40;;;26.10;42.50;;;;;;4984427;28;20045;-73
2022/05/25 10:25:05;;;;;;;2.13;0.35;;;26.10;41.70;;;;;;4964576;28;20034;-74
2022/05/25 10:27:35;;;;;;;0.43;0.25;;;26.20;42.20;;;;;;4969022;28;20095;-74
2022/05/25 10:38:45;;;;;;;3.25;0.50;;;26.10;41.80;;;;;;4983944;28;20529;-74
2022/05/25 10:44:17;;;;;;;0.32;0.30;;;26.40;41.70;;;;;;4974103;28;20711;-74
2022/05/25 10:46:49;;;;;;;1.13;0.40;;;26.40;40.80;;;;;;4979662;28;20527;-76
2022/05/25 10:49:27;;;;;;;3.13;0.38;;;26.40;41.30;;;;;;4981630;28;20026;-74
2022/05/25 10:51:59;;;;;;;1.63;0.30;;;26.40;41.00;;;;;;4994167;28;20117;-74
2022/05/25 10:54:45;;;;;;;1.40;0.22;;;26.30;41.00;;;;;;4969389;28;20045;-75
2022/05/25 10:57:47;;;;;;;0.85;0.38;;;26.30;40.30;;;;;;4975148;28;20050;-74
2022/05/25 11:00:18;;;;;;;3.75;0.40;;;26.40;39.70;;;;;;4998021;28;20120;-73
2022/05/25 11:03:07;;;;;;;0.20;0.20;;;26.50;40.50;;;;;;4968974;28;20443;-74
2022/05/25 11:05:54;;;;;;;0.60;0.30;;;26.50;40.20;;;;;;4945871;28;20069;-74
2022/05/25 11:08:52;;;;;;;1.45;0.30;;;26.80;39.30;;;;;;4977398;28;20050;-74
2022/05/25 11:11:26;;;;;;;2.25;0.25;;;27.00;39.20;;;;;;4996747;28;20050;-73
2022/05/25 11:14:32;;;;;;;4.40;0.40;;;27.20;39.70;;;;;;4979899;28;20042;-74
2022/05/25 11:17:07;;;;;;;3.15;0.50;;;27.30;38.50;;;;;;4996911;28;20117;-74
2022/05/25 11:19:59;;;;;;;0.40;0.20;;;27.50;39.20;;;;;;4976338;28;20042;-74
2022/05/25 11:22:31;;;;;;;0.88;0.30;;;27.60;38.40;;;;;;4967776;28;20569;-74
2022/05/25 11:25:24;;;;;;;2.05;0.30;;;27.70;39.10;;;;;;4996398;28;20034;-74
2022/05/25 11:27:52;;;;;;;4.15;0.40;;;27.70;37.70;;;;;;4954251;28;20487;-74
2022/05/25 11:30:23;;;;;;;0.68;0.20;;;27.60;38.60;;;;;;4996624;28;20037;-75
2022/05/25 11:33:07;;;;;;;3.97;0.30;;;27.70;38.60;;;;;;4980234;28;20030;-74
2022/05/25 11:35:48;;;;;;;2.05;0.30;;;27.70;38.60;;;;;;4987401;28;20701;-75
2022/05/25 11:38:41;;;;;;;0.77;0.40;;;27.80;38.30;;;;;;4998202;28;20091;-74
2022/05/25 11:41:22;;;;;;;1.20;0.20;;;27.80;37.20;;;;;;4976119;28;20120;-73
2022/05/25 11:44:09;;;;;;;0.90;0.28;;;27.70;37.50;;;;;;4969962;28;20034;-74
2022/05/25 11:46:42;;;;;;;2.13;0.20;;;27.70;37.30;;;;;;4998609;28;20034;-75
2022/05/25 11:49:27;;;;;;;4.47;0.40;;;27.70;37.60;;;;;;4984434;28;20051;-74
2022/05/25 11:52:31;;;;;;;2.65;0.40;;;27.60;36.80;;;;;;4998808;28;20057;-74
2022/05/25 11:55:24;;;;;;;0.47;0.40;;;27.70;36.70;;;;;;4997283;28;20046;-73
2022/05/25 11:57:56;;;;;;;2.67;0.45;;;27.80;37.10;;;;;;4981535;28;20072;-74
2022/05/25 12:00:37;;;;;;;1.80;0.40;;;27.70;37.40;;;;;;4954902;28;20034;-74
2022/05/25 12:03:25;;;;;;;1.55;0.50;;;27.60;36.50;;;;;;4996135;28;20042;-73
2022/05/25 12:05:51;;;;;;;1.77;0.40;;;27.60;36.30;;;;;;4986170;28;20026;-74
2022/05/25 12:09:02;;;;;;;0.47;0.32;;;27.70;37.00;;;;;;4994015;28;20037;-73
2022/05/25 12:11:41;;;;;;;0.68;0.40;;;27.80;36.30;;;;;;4952881;28;21077;-74
2022/05/25 12:14:16;;;;;;;3.10;0.40;;;27.90;36.20;;;;;;4939127;28;20039;-74
2022/05/25 12:16:41;;;;;;;0.40;0.20;;;28.00;36.40;;;;;;4939470;28;20043;-74
2022/05/25 12:19:18;;;;;;;1.33;0.20;;;28.20;36.70;;;;;;4936559;28;20629;-74
2022/05/25 12:21:57;;;;;;;0.70;0.30;;;28.40;36.20;;;;;;4913096;28;20065;-73
2022/05/25 12:24:30;;;;;;;0.98;0.28;;;28.50;35.20;;;;;;4923710;28;20035;-74
2022/05/25 12:26:56;;;;;;;1.55;0.30;;;28.50;35.90;;;;;;4924391;28;20031;-74
2022/05/25 12:29:27;;;;;;;0.50;0.30;;;28.60;36.00;;;;;;4930186;28;20046;-75
2022/05/25 12:31:55;;;;;;;2.03;0.20;;;28.50;35.50;;;;;;4932392;28;20054;-74
2022/05/25 12:34:41;;;;;;;4.63;0.30;;;28.50;35.60;;;;;;4929414;28;20046;-74
2022/05/25 12:37:08;;;;;;;0.30;0.20;;;28.50;34.90;;;;;;4948165;28;20035;-75
2022/05/25 12:39:42;;;;;;;0.95;0.30;;;28.60;35.80;;;;;;4938329;28;20066;-75
2022/05/25 12:42:23;;;;;;;0.35;0.30;;;28.70;35.30;;;;;;4945664;28;20035;-74
2022/05/25 12:50:48;;;;;;;2.25;0.25;;;28.80;34.50;;;;;;4986398;28;20592;-74
2022/05/25 12:53:26;;;;;;;1.17;0.22;;;28.70;35.40;;;;;;4988848;28;20148;-74
2022/05/25 12:56:02;;;;;;;1.08;0.30;;;28.70;35.30;;;;;;4985604;28;20077;-74
2022/05/25 12:58:56;;;;;;;0.70;0.35;;;28.70;35.20;;;;;;4957920;28;20092;-75
2022/05/25 13:01:22;;;;;;;1.38;0.50;;;28.70;35.10;;;;;;4994254;28;20499;-74
2022/05/25 13:03:47;;;;;;;1.83;0.30;;;28.70;35.30;;;;;;4994886;28;20056;-74
2022/05/25 13:06:21;;;;;;;0.60;0.60;;;28.80;35.20;;;;;;4986909;28;20101;-73
2022/05/25 13:08:47;;;;;;;2.40;0.30;;;28.90;35.20;;;;;;4945747;28;20049;-74
2022/05/25 13:11:44;;;;;;;0.15;0.15;;;29.00;35.00;;;;;;4987951;28;20120;-74
2022/05/25 13:14:22;;;;;;;1.42;0.20;;;29.10;33.40;;;;;;4993275;28;20103;-74
2022/05/25 13:16:51;;;;;;;1.75;0.20;;;29.10;34.30;;;;;;4983415;28;20034;-75
2022/05/25 13:19:31;;;;;;;1.05;0.40;;;29.20;34.20;;;;;;4975680;28;20038;-75
2022/05/25 13:22:03;;;;;;;0.93;0.13;;;29.20;33.20;;;;;;4979831;28;20041;-73
2022/05/25 13:25:08;;;;;;;0.63;0.20;;;29.20;33.90;;;;;;4997589;28;20040;-74
2022/05/25 13:27:58;;;;;;;0.80;0.35;;;29.10;32.90;;;;;;4969011;28;20048;-74
2022/05/25 13:30:52;;;;;;;0.35;0.30;;;29.10;33.00;;;;;;4983846;28;20038;-74
2022/05/25 13:33:21;;;;;;;1.92;0.20;;;29.10;33.60;;;;;;4955181;28;20056;-74
2022/05/25 13:35:55;;;;;;;2.38;0.40;;;29.20;33.90;;;;;;4977173;28;20034;-74
2022/05/25 13:38:25;;;;;;;1.02;0.20;;;29.20;33.90;;;;;;4977839;28;20072;-75
2022/05/25 13:41:29;;;;;;;2.88;0.25;;;29.30;33.90;;;;;;4952193;28;20034;-76
2022/05/25 13:43:58;;;;;;;1.75;0.22;;;29.50;33.10;;;;;;4978091;28;20088;-75